Gayville, New York
Current Conditions -  °F | °C
As of 3:21 AM on Friday 19 Dec 2014 (Local Time) from KSYR Reporting Station
Light Snow Light Snow  
Wind Chill: 18°   Ceiling: 1700
Heat Index: 27°   Visibility: 10mi
Dew Point: 24°   Wind: 9mph
Humidity: 89%   Direction: 290°WNW
Pressure: 30.05"   Gusts: NA
Location:  43.2999°N, 76.0002°W
Report Text: KSYR 190821Z 29008KT 10SM -SN BKN017 OVC021 M03/M04 A3005 RMK AO2 FZDZE19SNB19 P0000 T10281044
Loading
Personal Weather Stations






























Interactive Weather Map New forecast layout! Learn more

10-Day Weather Forecast

Advertisements
Track Severe Weather on mobile